sensor_id;sensor_type;location;lat;lon;timestamp;P1;durP1;ratioP1;P2;durP2;ratioP2
53313;SDS011;39202;51.468;7.146;2023-05-29T00:04:10;1.60;;;1.50;;
53313;SDS011;39202;51.468;7.146;2023-05-29T00:09:14;1.50;;;1.40;;
53313;SDS011;39202;51.468;7.146;2023-05-29T00:14:15;1.90;;;1.80;;
53313;SDS011;39202;51.468;7.146;2023-05-29T00:19:19;1.70;;;1.60;;
53313;SDS011;39202;51.468;7.146;2023-05-29T00:24:22;1.70;;;1.60;;
53313;SDS011;39202;51.468;7.146;2023-05-29T00:29:24;1.90;;;1.80;;
53313;SDS011;39202;51.468;7.146;2023-05-29T00:34:26;1.83;;;1.73;;
53313;SDS011;39202;51.468;7.146;2023-05-29T00:39:29;1.83;;;1.73;;
53313;SDS011;39202;51.468;7.146;2023-05-29T00:44:30;2.28;;;1.50;;
53313;SDS011;39202;51.468;7.146;2023-05-29T00:49:32;1.65;;;1.55;;
53313;SDS011;39202;51.468;7.146;2023-05-29T00:54:37;1.60;;;1.50;;
53313;SDS011;39202;51.468;7.146;2023-05-29T00:59:39;1.55;;;1.50;;
53313;SDS011;39202;51.468;7.146;2023-05-29T01:04:42;1.67;;;1.58;;
53313;SDS011;39202;51.468;7.146;2023-05-29T01:09:47;1.52;;;1.40;;
53313;SDS011;39202;51.468;7.146;2023-05-29T01:14:53;1.70;;;1.60;;
53313;SDS011;39202;51.468;7.146;2023-05-29T01:20:07;1.73;;;1.63;;
53313;SDS011;39202;51.468;7.146;2023-05-29T01:25:18;1.60;;;1.50;;
53313;SDS011;39202;51.468;7.146;2023-05-29T01:30:25;1.70;;;1.60;;
53313;SDS011;39202;51.468;7.146;2023-05-29T01:35:29;1.45;;;1.45;;
53313;SDS011;39202;51.468;7.146;2023-05-29T01:40:32;1.52;;;1.42;;
53313;SDS011;39202;51.468;7.146;2023-05-29T01:45:35;1.73;;;1.63;;
53313;SDS011;39202;51.468;7.146;2023-05-29T01:50:37;1.65;;;1.55;;
53313;SDS011;39202;51.468;7.146;2023-05-29T01:55:39;1.50;;;1.50;;
53313;SDS011;39202;51.468;7.146;2023-05-29T02:00:43;1.50;;;1.40;;
53313;SDS011;39202;51.468;7.146;2023-05-29T02:05:45;1.55;;;1.45;;
53313;SDS011;39202;51.468;7.146;2023-05-29T02:10:47;1.45;;;1.45;;
53313;SDS011;39202;51.468;7.146;2023-05-29T02:15:50;1.48;;;1.38;;
53313;SDS011;39202;51.468;7.146;2023-05-29T02:20:51;1.52;;;1.42;;
53313;SDS011;39202;51.468;7.146;2023-05-29T02:25:53;1.50;;;1.40;;
53313;SDS011;39202;51.468;7.146;2023-05-29T02:30:56;1.52;;;1.48;;
53313;SDS011;39202;51.468;7.146;2023-05-29T02:35:58;1.70;;;1.60;;
53313;SDS011;39202;51.468;7.146;2023-05-29T02:41:00;1.40;;;1.40;;
53313;SDS011;39202;51.468;7.146;2023-05-29T02:46:03;1.88;;;1.77;;
53313;SDS011;39202;51.468;7.146;2023-05-29T02:51:04;1.42;;;1.30;;
53313;SDS011;39202;51.468;7.146;2023-05-29T02:56:06;1.60;;;1.50;;
53313;SDS011;39202;51.468;7.146;2023-05-29T03:01:10;1.30;;;1.20;;
53313;SDS011;39202;51.468;7.146;2023-05-29T03:06:12;1.63;;;1.52;;
53313;SDS011;39202;51.468;7.146;2023-05-29T03:11:13;1.35;;;1.30;;
53313;SDS011;39202;51.468;7.146;2023-05-29T03:16:17;1.58;;;1.50;;
53313;SDS011;39202;51.468;7.146;2023-05-29T03:21:19;1.35;;;1.30;;
53313;SDS011;39202;51.468;7.146;2023-05-29T03:26:21;1.50;;;1.40;;
53313;SDS011;39202;51.468;7.146;2023-05-29T03:31:24;1.25;;;1.25;;
53313;SDS011;39202;51.468;7.146;2023-05-29T03:36:26;1.27;;;1.27;;
53313;SDS011;39202;51.468;7.146;2023-05-29T03:41:28;1.20;;;1.20;;
53313;SDS011;39202;51.468;7.146;2023-05-29T03:46:31;1.30;;;1.30;;
53313;SDS011;39202;51.468;7.146;2023-05-29T03:51:33;1.55;;;1.45;;
53313;SDS011;39202;51.468;7.146;2023-05-29T03:56:35;1.20;;;1.20;;
53313;SDS011;39202;51.468;7.146;2023-05-29T04:01:38;1.45;;;1.35;;
53313;SDS011;39202;51.468;7.146;2023-05-29T04:06:40;1.50;;;1.40;;
53313;SDS011;39202;51.468;7.146;2023-05-29T04:11:42;1.50;;;1.40;;
53313;SDS011;39202;51.468;7.146;2023-05-29T04:16:45;1.65;;;1.58;;
53313;SDS011;39202;51.468;7.146;2023-05-29T04:21:47;1.35;;;1.25;;
53313;SDS011;39202;51.468;7.146;2023-05-29T04:26:49;1.27;;;1.27;;
53313;SDS011;39202;51.468;7.146;2023-05-29T04:31:52;1.48;;;1.38;;
53313;SDS011;39202;51.468;7.146;2023-05-29T04:36:55;1.45;;;1.30;;
53313;SDS011;39202;51.468;7.146;2023-05-29T04:41:58;1.10;;;1.10;;
53313;SDS011;39202;51.468;7.146;2023-05-29T04:47:02;1.20;;;1.20;;
53313;SDS011;39202;51.468;7.146;2023-05-29T04:52:04;1.48;;;1.38;;
53313;SDS011;39202;51.468;7.146;2023-05-29T04:57:06;1.20;;;1.10;;
53313;SDS011;39202;51.468;7.146;2023-05-29T05:02:09;1.50;;;1.40;;
53313;SDS011;39202;51.468;7.146;2023-05-29T05:07:11;1.63;;;1.33;;
53313;SDS011;39202;51.468;7.146;2023-05-29T05:12:13;1.17;;;1.17;;
53313;SDS011;39202;51.468;7.146;2023-05-29T05:17:16;1.35;;;1.30;;
53313;SDS011;39202;51.468;7.146;2023-05-29T05:22:18;1.20;;;1.10;;
53313;SDS011;39202;51.468;7.146;2023-05-29T05:27:19;1.23;;;1.10;;
53313;SDS011;39202;51.468;7.146;2023-05-29T05:32:23;1.35;;;1.25;;
53313;SDS011;39202;51.468;7.146;2023-05-29T05:37:24;1.10;;;1.10;;
53313;SDS011;39202;51.468;7.146;2023-05-29T05:42:26;1.23;;;1.15;;
53313;SDS011;39202;51.468;7.146;2023-05-29T05:47:29;1.23;;;1.20;;
53313;SDS011;39202;51.468;7.146;2023-05-29T05:52:31;1.20;;;1.20;;
53313;SDS011;39202;51.468;7.146;2023-05-29T05:57:33;1.50;;;1.40;;
53313;SDS011;39202;51.468;7.146;2023-05-29T06:02:37;1.00;;;1.00;;
53313;SDS011;39202;51.468;7.146;2023-05-29T06:07:41;1.13;;;1.13;;
53313;SDS011;39202;51.468;7.146;2023-05-29T06:12:43;1.35;;;1.25;;
53313;SDS011;39202;51.468;7.146;2023-05-29T06:17:46;1.40;;;1.30;;
53313;SDS011;39202;51.468;7.146;2023-05-29T06:22:48;1.30;;;1.20;;
53313;SDS011;39202;51.468;7.146;2023-05-29T06:27:50;1.20;;;1.10;;
53313;SDS011;39202;51.468;7.146;2023-05-29T06:32:53;1.00;;;1.00;;
53313;SDS011;39202;51.468;7.146;2023-05-29T06:37:55;1.13;;;1.02;;
53313;SDS011;39202;51.468;7.146;2023-05-29T06:42:57;1.10;;;1.10;;
53313;SDS011;39202;51.468;7.146;2023-05-29T06:48:00;1.25;;;1.15;;
53313;SDS011;39202;51.468;7.146;2023-05-29T06:53:02;1.13;;;1.13;;
53313;SDS011;39202;51.468;7.146;2023-05-29T06:58:04;1.25;;;1.25;;
53313;SDS011;39202;51.468;7.146;2023-05-29T07:03:07;1.20;;;1.10;;
53313;SDS011;39202;51.468;7.146;2023-05-29T07:08:08;1.10;;;1.10;;
53313;SDS011;39202;51.468;7.146;2023-05-29T07:13:13;1.10;;;1.10;;
53313;SDS011;39202;51.468;7.146;2023-05-29T07:18:17;1.00;;;1.00;;
53313;SDS011;39202;51.468;7.146;2023-05-29T07:23:18;1.48;;;1.27;;
53313;SDS011;39202;51.468;7.146;2023-05-29T07:28:20;1.20;;;1.10;;
53313;SDS011;39202;51.468;7.146;2023-05-29T07:33:23;1.23;;;1.13;;
53313;SDS011;39202;51.468;7.146;2023-05-29T07:38:25;1.20;;;1.10;;
53313;SDS011;39202;51.468;7.146;2023-05-29T07:43:27;1.30;;;1.23;;
53313;SDS011;39202;51.468;7.146;2023-05-29T07:48:30;1.13;;;1.10;;
53313;SDS011;39202;51.468;7.146;2023-05-29T07:53:31;1.65;;;1.38;;
53313;SDS011;39202;51.468;7.146;2023-05-29T07:58:33;1.58;;;1.10;;
53313;SDS011;39202;51.468;7.146;2023-05-29T08:03:36;1.02;;;1.00;;
53313;SDS011;39202;51.468;7.146;2023-05-29T08:08:38;1.30;;;1.20;;
53313;SDS011;39202;51.468;7.146;2023-05-29T08:13:40;1.08;;;1.00;;
53313;SDS011;39202;51.468;7.146;2023-05-29T08:18:43;1.30;;;1.20;;
53313;SDS011;39202;51.468;7.146;2023-05-29T08:23:45;0.93;;;0.93;;
53313;SDS011;39202;51.468;7.146;2023-05-29T08:28:46;1.00;;;1.00;;
53313;SDS011;39202;51.468;7.146;2023-05-29T08:33:50;1.13;;;1.05;;
53313;SDS011;39202;51.468;7.146;2023-05-29T08:38:51;1.30;;;1.10;;
53313;SDS011;39202;51.468;7.146;2023-05-29T08:43:54;1.38;;;1.27;;
53313;SDS011;39202;51.468;7.146;2023-05-29T08:48:58;1.42;;;1.33;;
53313;SDS011;39202;51.468;7.146;2023-05-29T08:54:02;2.10;;;1.23;;
53313;SDS011;39202;51.468;7.146;2023-05-29T08:59:04;1.48;;;1.00;;
53313;SDS011;39202;51.468;7.146;2023-05-29T09:04:08;1.70;;;1.17;;
53313;SDS011;39202;51.468;7.146;2023-05-29T09:09:10;1.30;;;1.20;;
53313;SDS011;39202;51.468;7.146;2023-05-29T09:19:37;1.05;;;1.02;;
53313;SDS011;39202;51.468;7.146;2023-05-29T09:24:41;1.42;;;1.15;;
53313;SDS011;39202;51.468;7.146;2023-05-29T09:29:44;1.10;;;1.02;;
53313;SDS011;39202;51.468;7.146;2023-05-29T09:34:48;1.45;;;1.33;;
53313;SDS011;39202;51.468;7.146;2023-05-29T09:39:54;1.60;;;1.40;;
53313;SDS011;39202;51.468;7.146;2023-05-29T09:44:56;2.67;;;1.52;;
53313;SDS011;39202;51.468;7.146;2023-05-29T09:50:05;2.15;;;1.20;;
53313;SDS011;39202;51.468;7.146;2023-05-29T09:55:07;3.95;;;1.67;;
53313;SDS011;39202;51.468;7.146;2023-05-29T10:00:11;3.20;;;1.90;;
53313;SDS011;39202;51.468;7.146;2023-05-29T10:05:15;2.65;;;1.92;;
53313;SDS011;39202;51.468;7.146;2023-05-29T10:10:17;3.55;;;1.83;;
53313;SDS011;39202;51.468;7.146;2023-05-29T10:15:19;4.78;;;2.25;;
53313;SDS011;39202;51.468;7.146;2023-05-29T10:20:22;3.38;;;2.25;;
53313;SDS011;39202;51.468;7.146;2023-05-29T10:25:25;4.82;;;2.70;;
53313;SDS011;39202;51.468;7.146;2023-05-29T10:30:33;5.30;;;2.70;;
53313;SDS011;39202;51.468;7.146;2023-05-29T10:35:42;4.78;;;2.67;;
53313;SDS011;39202;51.468;7.146;2023-05-29T10:40:47;6.88;;;3.38;;
53313;SDS011;39202;51.468;7.146;2023-05-29T10:45:49;7.35;;;3.03;;
53313;SDS011;39202;51.468;7.146;2023-05-29T10:50:53;6.97;;;3.60;;
53313;SDS011;39202;51.468;7.146;2023-05-29T10:55:56;7.18;;;3.17;;
53313;SDS011;39202;51.468;7.146;2023-05-29T11:00:59;5.32;;;2.88;;
53313;SDS011;39202;51.468;7.146;2023-05-29T11:06:03;6.78;;;3.53;;
53313;SDS011;39202;51.468;7.146;2023-05-29T11:11:08;5.95;;;3.35;;
53313;SDS011;39202;51.468;7.146;2023-05-29T11:16:13;6.43;;;3.33;;
53313;SDS011;39202;51.468;7.146;2023-05-29T11:21:30;6.60;;;3.58;;
53313;SDS011;39202;51.468;7.146;2023-05-29T11:26:36;6.68;;;3.10;;
53313;SDS011;39202;51.468;7.146;2023-05-29T11:31:39;5.75;;;3.20;;
53313;SDS011;39202;51.468;7.146;2023-05-29T11:36:42;7.68;;;3.30;;
53313;SDS011;39202;51.468;7.146;2023-05-29T11:41:49;5.72;;;3.30;;
53313;SDS011;39202;51.468;7.146;2023-05-29T11:46:59;5.25;;;3.15;;
53313;SDS011;39202;51.468;7.146;2023-05-29T11:52:07;6.22;;;3.30;;
53313;SDS011;39202;51.468;7.146;2023-05-29T11:57:09;4.72;;;2.97;;
53313;SDS011;39202;51.468;7.146;2023-05-29T12:02:11;4.80;;;3.10;;
53313;SDS011;39202;51.468;7.146;2023-05-29T12:07:18;7.18;;;3.13;;
53313;SDS011;39202;51.468;7.146;2023-05-29T12:12:20;5.70;;;3.20;;
53313;SDS011;39202;51.468;7.146;2023-05-29T12:17:22;5.35;;;2.78;;
53313;SDS011;39202;51.468;7.146;2023-05-29T12:22:31;4.15;;;2.80;;
53313;SDS011;39202;51.468;7.146;2023-05-29T12:27:34;4.15;;;2.47;;
53313;SDS011;39202;51.468;7.146;2023-05-29T12:32:41;5.13;;;3.10;;
53313;SDS011;39202;51.468;7.146;2023-05-29T12:37:46;5.53;;;2.80;;
53313;SDS011;39202;51.468;7.146;2023-05-29T12:42:53;3.88;;;2.42;;
53313;SDS011;39202;51.468;7.146;2023-05-29T12:47:56;4.65;;;2.60;;
53313;SDS011;39202;51.468;7.146;2023-05-29T12:53:03;3.20;;;2.50;;
53313;SDS011;39202;51.468;7.146;2023-05-29T12:58:06;5.18;;;2.72;;
53313;SDS011;39202;51.468;7.146;2023-05-29T13:03:09;4.15;;;2.60;;
53313;SDS011;39202;51.468;7.146;2023-05-29T13:08:12;4.30;;;2.42;;
53313;SDS011;39202;51.468;7.146;2023-05-29T13:13:14;4.28;;;2.65;;
53313;SDS011;39202;51.468;7.146;2023-05-29T13:18:16;4.10;;;2.60;;
53313;SDS011;39202;51.468;7.146;2023-05-29T13:23:19;4.47;;;2.45;;
53313;SDS011;39202;51.468;7.146;2023-05-29T13:28:22;4.32;;;2.38;;
53313;SDS011;39202;51.468;7.146;2023-05-29T13:33:24;4.28;;;2.38;;
53313;SDS011;39202;51.468;7.146;2023-05-29T13:38:27;4.13;;;2.33;;
53313;SDS011;39202;51.468;7.146;2023-05-29T13:43:29;2.58;;;2.03;;
53313;SDS011;39202;51.468;7.146;2023-05-29T13:48:31;4.20;;;2.35;;
53313;SDS011;39202;51.468;7.146;2023-05-29T13:53:35;3.25;;;2.20;;
53313;SDS011;39202;51.468;7.146;2023-05-29T13:58:37;3.45;;;2.28;;
53313;SDS011;39202;51.468;7.146;2023-05-29T14:03:38;2.25;;;1.95;;
53313;SDS011;39202;51.468;7.146;2023-05-29T14:08:41;2.45;;;1.95;;
53313;SDS011;39202;51.468;7.146;2023-05-29T14:13:43;4.03;;;2.13;;
53313;SDS011;39202;51.468;7.146;2023-05-29T14:18:45;3.42;;;2.28;;
53313;SDS011;39202;51.468;7.146;2023-05-29T14:23:49;2.50;;;2.08;;
53313;SDS011;39202;51.468;7.146;2023-05-29T14:28:51;3.30;;;2.30;;
53313;SDS011;39202;51.468;7.146;2023-05-29T14:33:53;3.00;;;1.92;;
53313;SDS011;39202;51.468;7.146;2023-05-29T14:38:56;2.85;;;1.80;;
53313;SDS011;39202;51.468;7.146;2023-05-29T14:43:58;3.03;;;2.10;;
53313;SDS011;39202;51.468;7.146;2023-05-29T14:49:00;2.20;;;1.90;;
53313;SDS011;39202;51.468;7.146;2023-05-29T14:54:03;2.35;;;1.80;;
53313;SDS011;39202;51.468;7.146;2023-05-29T14:59:05;1.83;;;1.67;;
53313;SDS011;39202;51.468;7.146;2023-05-29T15:04:07;2.00;;;1.70;;
53313;SDS011;39202;51.468;7.146;2023-05-29T15:09:13;2.03;;;1.63;;
53313;SDS011;39202;51.468;7.146;2023-05-29T15:14:14;2.63;;;1.70;;
53313;SDS011;39202;51.468;7.146;2023-05-29T15:19:17;2.35;;;1.70;;
53313;SDS011;39202;51.468;7.146;2023-05-29T15:24:20;2.17;;;1.60;;
53313;SDS011;39202;51.468;7.146;2023-05-29T15:29:22;2.03;;;1.60;;
53313;SDS011;39202;51.468;7.146;2023-05-29T15:34:24;2.13;;;1.77;;
53313;SDS011;39202;51.468;7.146;2023-05-29T15:39:27;1.58;;;1.48;;
53313;SDS011;39202;51.468;7.146;2023-05-29T15:44:28;1.88;;;1.70;;
53313;SDS011;39202;51.468;7.146;2023-05-29T15:49:30;1.67;;;1.58;;
53313;SDS011;39202;51.468;7.146;2023-05-29T15:54:34;1.58;;;1.40;;
53313;SDS011;39202;51.468;7.146;2023-05-29T15:59:36;2.15;;;1.60;;
53313;SDS011;39202;51.468;7.146;2023-05-29T16:04:38;3.15;;;1.67;;
53313;SDS011;39202;51.468;7.146;2023-05-29T16:09:41;1.65;;;1.42;;
53313;SDS011;39202;51.468;7.146;2023-05-29T16:14:43;1.67;;;1.45;;
53313;SDS011;39202;51.468;7.146;2023-05-29T16:19:45;1.50;;;1.40;;
53313;SDS011;39202;51.468;7.146;2023-05-29T16:24:49;1.90;;;1.50;;
53313;SDS011;39202;51.468;7.146;2023-05-29T16:29:50;1.50;;;1.40;;
53313;SDS011;39202;51.468;7.146;2023-05-29T16:34:52;1.63;;;1.52;;
53313;SDS011;39202;51.468;7.146;2023-05-29T16:39:56;1.63;;;1.52;;
53313;SDS011;39202;51.468;7.146;2023-05-29T16:44:57;1.42;;;1.33;;
53313;SDS011;39202;51.468;7.146;2023-05-29T16:49:59;2.03;;;1.60;;
53313;SDS011;39202;51.468;7.146;2023-05-29T16:55:03;1.70;;;1.45;;
53313;SDS011;39202;51.468;7.146;2023-05-29T17:00:06;1.50;;;1.40;;
53313;SDS011;39202;51.468;7.146;2023-05-29T17:05:08;1.58;;;1.45;;
53313;SDS011;39202;51.468;7.146;2023-05-29T17:10:12;1.90;;;1.48;;
53313;SDS011;39202;51.468;7.146;2023-05-29T17:15:14;1.88;;;1.50;;
53313;SDS011;39202;51.468;7.146;2023-05-29T17:20:15;1.70;;;1.60;;
53313;SDS011;39202;51.468;7.146;2023-05-29T17:25:19;2.30;;;1.55;;
53313;SDS011;39202;51.468;7.146;2023-05-29T17:30:21;1.40;;;1.30;;
53313;SDS011;39202;51.468;7.146;2023-05-29T17:35:23;1.95;;;1.52;;
53313;SDS011;39202;51.468;7.146;2023-05-29T17:40:26;1.88;;;1.58;;
53313;SDS011;39202;51.468;7.146;2023-05-29T17:45:28;1.58;;;1.30;;
53313;SDS011;39202;51.468;7.146;2023-05-29T17:50:29;1.45;;;1.30;;
53313;SDS011;39202;51.468;7.146;2023-05-29T17:55:35;1.42;;;1.30;;
53313;SDS011;39202;51.468;7.146;2023-05-29T18:00:37;1.42;;;1.33;;
53313;SDS011;39202;51.468;7.146;2023-05-29T18:05:39;1.40;;;1.30;;
53313;SDS011;39202;51.468;7.146;2023-05-29T18:10:42;1.95;;;1.27;;
53313;SDS011;39202;51.468;7.146;2023-05-29T18:15:43;2.15;;;1.50;;
53313;SDS011;39202;51.468;7.146;2023-05-29T18:20:45;1.50;;;1.35;;
53313;SDS011;39202;51.468;7.146;2023-05-29T18:25:48;1.58;;;1.48;;
53313;SDS011;39202;51.468;7.146;2023-05-29T18:30:51;1.50;;;1.38;;
53313;SDS011;39202;51.468;7.146;2023-05-29T18:35:52;1.58;;;1.48;;
53313;SDS011;39202;51.468;7.146;2023-05-29T18:40:55;2.00;;;1.30;;
53313;SDS011;39202;51.468;7.146;2023-05-29T18:45:57;1.50;;;1.40;;
53313;SDS011;39202;51.468;7.146;2023-05-29T18:50:59;1.75;;;1.38;;
53313;SDS011;39202;51.468;7.146;2023-05-29T18:56:03;1.10;;;1.10;;
53313;SDS011;39202;51.468;7.146;2023-05-29T19:01:05;1.30;;;1.10;;
53313;SDS011;39202;51.468;7.146;2023-05-29T19:06:07;1.50;;;1.40;;
53313;SDS011;39202;51.468;7.146;2023-05-29T19:11:10;1.95;;;1.40;;
53313;SDS011;39202;51.468;7.146;2023-05-29T19:16:15;1.30;;;1.20;;
53313;SDS011;39202;51.468;7.146;2023-05-29T19:21:16;1.30;;;1.20;;
53313;SDS011;39202;51.468;7.146;2023-05-29T19:26:20;1.30;;;1.20;;
53313;SDS011;39202;51.468;7.146;2023-05-29T19:31:22;1.40;;;1.30;;
53313;SDS011;39202;51.468;7.146;2023-05-29T19:36:26;1.48;;;1.30;;
53313;SDS011;39202;51.468;7.146;2023-05-29T19:41:29;1.40;;;1.30;;
53313;SDS011;39202;51.468;7.146;2023-05-29T19:46:31;1.25;;;1.15;;
53313;SDS011;39202;51.468;7.146;2023-05-29T19:51:32;1.30;;;1.20;;
53313;SDS011;39202;51.468;7.146;2023-05-29T19:56:37;1.35;;;1.25;;
53313;SDS011;39202;51.468;7.146;2023-05-29T20:01:38;1.17;;;1.10;;
53313;SDS011;39202;51.468;7.146;2023-05-29T20:06:40;1.20;;;1.10;;
53313;SDS011;39202;51.468;7.146;2023-05-29T20:11:43;2.25;;;1.30;;
53313;SDS011;39202;51.468;7.146;2023-05-29T20:16:45;1.42;;;1.30;;
53313;SDS011;39202;51.468;7.146;2023-05-29T20:21:47;1.33;;;1.23;;
53313;SDS011;39202;51.468;7.146;2023-05-29T20:26:50;1.17;;;1.15;;
53313;SDS011;39202;51.468;7.146;2023-05-29T20:31:54;1.30;;;1.20;;
53313;SDS011;39202;51.468;7.146;2023-05-29T20:36:56;1.23;;;1.20;;
53313;SDS011;39202;51.468;7.146;2023-05-29T20:41:59;1.35;;;1.30;;
53313;SDS011;39202;51.468;7.146;2023-05-29T20:47:01;1.38;;;1.27;;
53313;SDS011;39202;51.468;7.146;2023-05-29T20:52:04;1.30;;;1.20;;
53313;SDS011;39202;51.468;7.146;2023-05-29T20:57:07;1.95;;;1.40;;
53313;SDS011;39202;51.468;7.146;2023-05-29T21:02:09;1.40;;;1.30;;
53313;SDS011;39202;51.468;7.146;2023-05-29T21:07:11;1.83;;;1.40;;
53313;SDS011;39202;51.468;7.146;2023-05-29T21:12:14;1.23;;;1.13;;
53313;SDS011;39202;51.468;7.146;2023-05-29T21:17:16;1.33;;;1.23;;
53313;SDS011;39202;51.468;7.146;2023-05-29T21:22:18;1.25;;;1.10;;
53313;SDS011;39202;51.468;7.146;2023-05-29T21:27:21;1.17;;;1.13;;
53313;SDS011;39202;51.468;7.146;2023-05-29T21:32:23;1.58;;;1.38;;
53313;SDS011;39202;51.468;7.146;2023-05-29T21:37:25;1.10;;;1.10;;
53313;SDS011;39202;51.468;7.146;2023-05-29T21:42:28;1.30;;;1.20;;
53313;SDS011;39202;51.468;7.146;2023-05-29T21:47:30;1.20;;;1.08;;
53313;SDS011;39202;51.468;7.146;2023-05-29T21:52:32;1.45;;;1.25;;
53313;SDS011;39202;51.468;7.146;2023-05-29T21:57:35;1.13;;;1.13;;
53313;SDS011;39202;51.468;7.146;2023-05-29T22:02:37;1.35;;;1.17;;
53313;SDS011;39202;51.468;7.146;2023-05-29T22:07:39;1.00;;;1.00;;
53313;SDS011;39202;51.468;7.146;2023-05-29T22:12:42;1.38;;;1.25;;
53313;SDS011;39202;51.468;7.146;2023-05-29T22:17:44;1.33;;;1.23;;
53313;SDS011;39202;51.468;7.146;2023-05-29T22:22:47;1.50;;;1.40;;
53313;SDS011;39202;51.468;7.146;2023-05-29T22:27:50;0.95;;;0.95;;
53313;SDS011;39202;51.468;7.146;2023-05-29T22:32:52;1.17;;;1.00;;
53313;SDS011;39202;51.468;7.146;2023-05-29T22:37:53;1.25;;;1.15;;
53313;SDS011;39202;51.468;7.146;2023-05-29T22:42:58;1.25;;;1.25;;
53313;SDS011;39202;51.468;7.146;2023-05-29T22:47:59;1.30;;;1.20;;
53313;SDS011;39202;51.468;7.146;2023-05-29T22:53:01;1.40;;;1.20;;
53313;SDS011;39202;51.468;7.146;2023-05-29T22:58:04;1.50;;;1.40;;
53313;SDS011;39202;51.468;7.146;2023-05-29T23:03:06;1.17;;;1.17;;
53313;SDS011;39202;51.468;7.146;2023-05-29T23:08:08;1.30;;;1.27;;
53313;SDS011;39202;51.468;7.146;2023-05-29T23:13:11;1.20;;;1.20;;
53313;SDS011;39202;51.468;7.146;2023-05-29T23:18:13;1.40;;;1.30;;
53313;SDS011;39202;51.468;7.146;2023-05-29T23:23:15;1.10;;;1.10;;
53313;SDS011;39202;51.468;7.146;2023-05-29T23:28:18;1.30;;;1.20;;
53313;SDS011;39202;51.468;7.146;2023-05-29T23:33:19;0.98;;;0.98;;
53313;SDS011;39202;51.468;7.146;2023-05-29T23:38:22;1.13;;;1.08;;
53313;SDS011;39202;51.468;7.146;2023-05-29T23:43:25;1.10;;;1.10;;
53313;SDS011;39202;51.468;7.146;2023-05-29T23:48:27;1.10;;;1.10;;
53313;SDS011;39202;51.468;7.146;2023-05-29T23:53:29;1.00;;;1.00;;
53313;SDS011;39202;51.468;7.146;2023-05-29T23:58:32;1.27;;;1.17;;
